createdAt,value
2024-01-24T00:00:32.496Z,98772.75
2024-01-24T00:02:58.931Z,98754.59
2024-01-24T00:05:25.375Z,98756.44
2024-01-24T00:07:51.777Z,98755.44
2024-01-24T00:10:18.161Z,98758.78
2024-01-24T00:12:44.595Z,98753.41
2024-01-24T00:15:11.038Z,98755.44
2024-01-24T00:17:37.480Z,98762.16
2024-01-24T00:20:03.907Z,98751.56
2024-01-24T00:22:30.287Z,98756.94
2024-01-24T00:24:56.686Z,98758.78
2024-01-24T00:27:23.135Z,98742.00
2024-01-24T00:29:49.541Z,98745.34
2024-01-24T00:32:15.956Z,98741.31
2024-01-24T00:34:42.404Z,98740.31
2024-01-24T00:37:08.945Z,98742.19
2024-01-24T00:39:35.401Z,98743.00
2024-01-24T00:42:01.808Z,98737.97
2024-01-24T00:44:28.218Z,98732.59
2024-01-24T00:46:54.617Z,98713.09
2024-01-24T00:49:21.171Z,98700.84
2024-01-24T00:51:47.695Z,98691.09
2024-01-24T00:54:14.177Z,98694.47
2024-01-24T00:56:40.578Z,98712.56
2024-01-24T00:59:07.032Z,98721.16
2024-01-24T01:01:33.468Z,98727.03
2024-01-24T01:04:00.021Z,98729.72
2024-01-24T01:06:26.532Z,98720.44
2024-01-24T01:08:53.060Z,98720.28
2024-01-24T01:11:19.474Z,98714.09
2024-01-24T01:13:45.869Z,98719.13
2024-01-24T01:16:12.297Z,98733.41
2024-01-24T01:18:38.774Z,98742.13
2024-01-24T01:21:05.328Z,98748.34
2024-01-24T01:23:31.709Z,98742.13
2024-01-24T01:25:58.103Z,98726.84
2024-01-24T01:28:24.506Z,98712.91
2024-01-24T01:30:50.932Z,98710.22
2024-01-24T01:33:17.570Z,98692.59
2024-01-24T01:35:44.086Z,98689.91
2024-01-24T01:38:10.546Z,98702.34
2024-01-24T01:40:36.941Z,98712.22
2024-01-24T01:43:03.357Z,98714.41
2024-01-24T01:45:29.772Z,98724.00
2024-01-24T01:47:56.262Z,98722.13
2024-01-24T01:50:22.691Z,98712.22
2024-01-24T01:52:49.080Z,98712.09
2024-01-24T01:55:15.576Z,98720.16
2024-01-24T01:57:42.076Z,98724.50
2024-01-24T02:00:08.512Z,98725.34
2024-01-24T02:02:34.975Z,98722.66
2024-01-24T02:05:01.421Z,98725.19
2024-01-24T02:07:27.859Z,98723.16
2024-01-24T02:09:54.328Z,98729.41
2024-01-24T02:12:20.844Z,98720.13
2024-01-24T02:14:47.277Z,98718.31
2024-01-24T02:17:13.666Z,98716.78
2024-01-24T02:19:40.124Z,98710.41
2024-01-24T02:22:06.630Z,98712.75
2024-01-24T02:24:33.077Z,98711.06
2024-01-24T02:26:59.503Z,98701.03
2024-01-24T02:29:25.898Z,98691.94
2024-01-24T02:31:52.307Z,98689.25
2024-01-24T02:34:18.815Z,98700.84
2024-01-24T02:36:45.410Z,98701.31
2024-01-24T02:39:11.835Z,98693.28
2024-01-24T02:41:38.289Z,98692.41
2024-01-24T02:44:04.765Z,98717.28
2024-01-24T02:46:31.143Z,98715.44
2024-01-24T02:48:57.698Z,98717.28
2024-01-24T02:51:24.202Z,98717.28
2024-01-24T02:53:50.690Z,98719.13
2024-01-24T02:56:17.088Z,98708.38
2024-01-24T02:58:43.611Z,98701.47
2024-01-24T03:01:10.082Z,98694.28
2024-01-24T03:03:36.711Z,98694.28
2024-01-24T03:06:03.170Z,98695.44
2024-01-24T03:08:29.586Z,98707.03
2024-01-24T03:10:55.995Z,98704.19
2024-01-24T03:13:22.446Z,98709.22
2024-01-24T03:15:48.985Z,98705.53
2024-01-24T03:18:15.500Z,98703.66
2024-01-24T03:20:41.940Z,98708.88
2024-01-24T03:23:08.335Z,98683.16
2024-01-24T03:25:34.824Z,98686.03
2024-01-24T03:28:01.229Z,98687.03
2024-01-24T03:30:27.639Z,98674.44
2024-01-24T03:32:54.113Z,98670.91
2024-01-24T03:35:20.530Z,98687.38
2024-01-24T03:37:46.902Z,98679.78
2024-01-24T03:40:13.524Z,98682.47
2024-01-24T03:42:39.974Z,98680.66
2024-01-24T03:45:06.385Z,98667.38
2024-01-24T03:47:32.814Z,98684.00
2024-01-24T03:49:59.255Z,98682.31
2024-01-24T03:52:26.636Z,98672.25
2024-01-24T03:54:53.072Z,98680.81
2024-01-24T03:57:19.514Z,98685.34
2024-01-24T03:59:45.905Z,98693.56
2024-01-24T04:02:13.449Z,98703.28
2024-01-24T04:04:40.116Z,98688.47
2024-01-24T04:07:06.722Z,98688.47
2024-01-24T04:09:33.331Z,98684.63
2024-01-24T04:11:59.744Z,98677.41
2024-01-24T04:14:26.146Z,98670.03
2024-01-24T04:16:52.541Z,98677.94
2024-01-24T04:19:19.110Z,98676.78
2024-01-24T04:21:45.684Z,98672.06
2024-01-24T04:24:12.504Z,98671.06
2024-01-24T04:26:38.984Z,98674.91
2024-01-24T04:29:05.375Z,98677.94
2024-01-24T04:31:31.861Z,98686.00
2024-01-24T04:33:58.451Z,98699.41
2024-01-24T04:36:25.001Z,98708.13
2024-01-24T04:38:51.423Z,98704.75
2024-01-24T04:41:17.806Z,98707.28
2024-01-24T04:43:44.205Z,98715.34
2024-01-24T04:46:10.628Z,98730.13
2024-01-24T04:48:37.122Z,98726.28
2024-01-24T04:51:03.641Z,98727.81
2024-01-24T04:53:30.033Z,98738.22
2024-01-24T04:55:56.493Z,98733.66
2024-01-24T04:58:22.896Z,98738.72
2024-01-24T05:00:49.438Z,98744.94
2024-01-24T05:03:15.966Z,98744.94
2024-01-24T05:05:42.361Z,98754.81
2024-01-24T05:08:08.807Z,98750.16
2024-01-24T05:10:35.194Z,98754.34
2024-01-24T05:13:01.610Z,98758.69
2024-01-24T05:15:28.052Z,98758.53
2024-01-24T05:17:54.607Z,98765.59
2024-01-24T05:20:21.040Z,98762.91
2024-01-24T05:22:47.440Z,98767.47
2024-01-24T05:25:13.842Z,98771.81
2024-01-24T05:27:40.248Z,98773.50
2024-01-24T05:30:12.367Z,98770.63
2024-01-24T05:32:46.374Z,98771.13
2024-01-24T05:35:12.814Z,98786.25
2024-01-24T05:37:39.214Z,98791.63
2024-01-24T05:40:05.643Z,98811.75
2024-01-24T05:42:32.117Z,98802.00
2024-01-24T05:44:58.550Z,98806.72
2024-01-24T05:47:25.049Z,98810.06
2024-01-24T05:49:51.560Z,98809.56
2024-01-24T05:52:18.021Z,98810.72
2024-01-24T05:54:44.435Z,98795.59
2024-01-24T05:57:10.844Z,98805.53
2024-01-24T05:59:37.250Z,98816.94
2024-01-24T06:02:03.729Z,98830.19
2024-01-24T06:04:30.391Z,98831.22
2024-01-24T06:06:57.054Z,98844.50
2024-01-24T06:09:23.521Z,98847.84
2024-01-24T06:11:50.151Z,98852.00
2024-01-24T06:14:16.718Z,98864.88
2024-01-24T06:16:43.224Z,98866.56
2024-01-24T06:19:09.727Z,98853.81
2024-01-24T06:21:36.171Z,98859.19
2024-01-24T06:24:02.611Z,98875.78
2024-01-24T06:26:29.037Z,98882.59
2024-01-24T06:28:55.500Z,98887.13
2024-01-24T06:31:21.992Z,98879.56
2024-01-24T06:33:48.555Z,98892.84
2024-01-24T06:36:15.192Z,98891.53
2024-01-24T06:38:42.795Z,98887.69
2024-01-24T06:41:10.114Z,98862.38
2024-01-24T06:43:36.539Z,98846.25
2024-01-24T06:46:03.053Z,98825.09
2024-01-24T06:48:29.551Z,98817.19
2024-01-24T06:50:56.032Z,98823.06
2024-01-24T06:53:22.469Z,98818.25
2024-01-24T06:55:48.861Z,98820.75
2024-01-24T06:58:15.239Z,98820.59
2024-01-24T07:00:41.746Z,98819.75
2024-01-24T07:03:08.258Z,98814.38
2024-01-24T07:05:34.730Z,98815.22
2024-01-24T07:08:01.096Z,98839.84
2024-01-24T07:10:28.118Z,98833.09
2024-01-24T07:12:54.577Z,98825.72
2024-01-24T07:15:21.061Z,98807.63
2024-01-24T07:17:47.853Z,98810.31
2024-01-24T07:20:14.588Z,98812.66
2024-01-24T07:22:41.104Z,98816.13
2024-01-24T07:25:07.531Z,98803.56
2024-01-24T07:27:35.784Z,98789.66
2024-01-24T07:30:02.382Z,98784.66
2024-01-24T07:32:28.855Z,98784.53
2024-01-24T07:34:55.384Z,98790.25
2024-01-24T07:37:21.828Z,98794.41
2024-01-24T07:39:48.235Z,98791.38
2024-01-24T07:42:15.199Z,98791.38
2024-01-24T07:44:41.860Z,98797.25
2024-01-24T07:47:08.481Z,98799.28
2024-01-24T07:49:37.578Z,98794.03
2024-01-24T07:52:05.406Z,98797.75
2024-01-24T07:54:31.950Z,98796.94
2024-01-24T07:56:58.988Z,98793.91
2024-01-24T07:59:25.535Z,98785.34
2024-01-24T08:01:51.985Z,98776.47
2024-01-24T08:04:19.155Z,98783.91
2024-01-24T08:06:46.080Z,98801.72
2024-01-24T08:09:13.605Z,98811.31
2024-01-24T08:11:40.171Z,98810.16
2024-01-24T08:14:08.273Z,98815.53
2024-01-24T08:16:34.729Z,98819.03
2024-01-24T08:19:01.485Z,98816.34
2024-01-24T08:21:27.921Z,98810.97
2024-01-24T08:23:54.326Z,98804.94
2024-01-24T08:26:20.778Z,98799.94
2024-01-24T08:28:47.704Z,98798.94
2024-01-24T08:31:14.145Z,98813.88
2024-01-24T08:33:40.707Z,98823.44
2024-01-24T08:36:08.027Z,98825.13
2024-01-24T08:38:34.720Z,98816.56
2024-01-24T08:41:01.208Z,98803.13
2024-01-24T08:43:27.638Z,98804.16
2024-01-24T08:45:54.060Z,98815.59
2024-01-24T08:48:20.535Z,98822.66
2024-01-24T08:50:46.991Z,98827.81
2024-01-24T08:53:13.439Z,98835.88
2024-01-24T08:55:40.042Z,98853.38
2024-01-24T08:58:06.595Z,98852.84
2024-01-24T09:00:33.243Z,98862.56
2024-01-24T09:03:00.152Z,98872.31
2024-01-24T09:05:26.607Z,98867.13
2024-01-24T09:07:53.566Z,98866.13
2024-01-24T09:10:20.028Z,98863.59
2024-01-24T09:12:47.153Z,98871.50
2024-01-24T09:15:13.832Z,98876.69
2024-01-24T09:17:40.321Z,98887.13
2024-01-24T09:20:06.984Z,98896.72
2024-01-24T09:22:33.402Z,98918.38
2024-01-24T09:25:00.499Z,98925.75
2024-01-24T09:27:28.140Z,98920.75
2024-01-24T09:29:54.542Z,98919.09
2024-01-24T09:32:20.951Z,98906.69
2024-01-24T09:34:47.507Z,98917.47
2024-01-24T09:37:13.987Z,98930.25
2024-01-24T09:39:40.406Z,98946.38
2024-01-24T09:42:06.818Z,98952.97
2024-01-24T09:44:33.217Z,98948.78
2024-01-24T09:46:59.613Z,98954.50
2024-01-24T09:49:26.072Z,98949.47
2024-01-24T09:51:52.846Z,98956.22
2024-01-24T09:54:19.743Z,98955.03
2024-01-24T09:56:46.299Z,98942.59
2024-01-24T09:59:12.710Z,98944.28
2024-01-24T10:01:39.260Z,98941.59
2024-01-24T10:04:05.848Z,98934.03
2024-01-24T10:06:32.364Z,98925.69
2024-01-24T10:08:58.814Z,98931.56
2024-01-24T10:11:25.226Z,98938.47
2024-01-24T10:13:51.651Z,98931.56
2024-01-24T10:16:18.269Z,98936.44
2024-01-24T10:18:44.961Z,98919.09
2024-01-24T10:21:11.414Z,98909.84
2024-01-24T10:23:37.895Z,98911.22
2024-01-24T10:26:04.438Z,98906.19
2024-01-24T10:28:30.910Z,98908.38
2024-01-24T10:30:57.672Z,98907.84
2024-01-24T10:33:24.389Z,98897.94
2024-01-24T10:35:52.266Z,98891.69
2024-01-24T10:38:20.298Z,98901.81
2024-01-24T10:40:46.746Z,98898.13
2024-01-24T10:43:13.173Z,98899.13
2024-01-24T10:45:39.706Z,98886.00
2024-01-24T10:48:06.500Z,98881.63
2024-01-24T10:50:33.017Z,98886.00
2024-01-24T10:52:59.426Z,98880.94
2024-01-24T10:55:25.987Z,98887.66
2024-01-24T10:57:52.474Z,98890.72
2024-01-24T11:00:19.011Z,98881.13
2024-01-24T11:02:45.539Z,98880.63
2024-01-24T11:05:11.961Z,98881.97
2024-01-24T11:07:38.370Z,98883.97
2024-01-24T11:10:06.928Z,98877.06
2024-01-24T11:12:34.807Z,98869.50
2024-01-24T11:15:01.247Z,98869.81
2024-01-24T11:17:27.719Z,98850.78
2024-01-24T11:19:54.289Z,98834.63
2024-01-24T11:22:27.036Z,98829.75
2024-01-24T11:24:56.857Z,98810.22
2024-01-24T11:27:23.420Z,98802.47
2024-01-24T11:29:49.884Z,98790.34
2024-01-24T11:32:16.612Z,98768.09
2024-01-24T11:34:43.263Z,98773.31
2024-01-24T11:37:10.268Z,98772.31
2024-01-24T11:39:37.136Z,98769.75
2024-01-24T11:42:03.837Z,98762.34
2024-01-24T11:44:30.263Z,98746.16
2024-01-24T11:46:56.728Z,98742.13
2024-01-24T11:49:23.298Z,98749.88
2024-01-24T11:51:49.799Z,98764.22
2024-01-24T11:54:16.656Z,98756.97
2024-01-24T11:56:43.159Z,98749.03
2024-01-24T11:59:09.587Z,98746.66
2024-01-24T12:01:36.998Z,98747.81
2024-01-24T12:04:03.549Z,98748.13
2024-01-24T12:06:30.066Z,98743.22
2024-01-24T12:08:58.374Z,98745.75
2024-01-24T12:11:25.030Z,98746.22
2024-01-24T12:13:51.479Z,98743.53
2024-01-24T12:16:17.979Z,98746.91
2024-01-24T12:18:45.075Z,98740.69
2024-01-24T12:21:12.214Z,98754.81
2024-01-24T12:23:38.895Z,98755.81
2024-01-24T12:26:05.310Z,98752.28
2024-01-24T12:28:31.839Z,98755.16
2024-01-24T12:30:58.337Z,98751.47
2024-01-24T12:33:24.983Z,98744.22
2024-01-24T12:35:52.300Z,98741.97
2024-01-24T12:38:19.257Z,98726.31
2024-01-24T12:40:45.773Z,98727.81
2024-01-24T12:43:12.277Z,98724.41
2024-01-24T12:45:40.436Z,98730.44
2024-01-24T12:48:07.611Z,98734.47
2024-01-24T12:50:34.202Z,98728.06
2024-01-24T12:53:00.950Z,98718.47
2024-01-24T12:55:27.508Z,98715.59
2024-01-24T12:57:53.943Z,98721.31
2024-01-24T13:00:20.427Z,98716.06
2024-01-24T13:02:46.883Z,98716.53
2024-01-24T13:05:13.499Z,98716.16
2024-01-24T13:07:40.247Z,98716.84
2024-01-24T13:10:07.380Z,98726.44
2024-01-24T13:12:34.630Z,98716.84
2024-01-24T13:15:01.481Z,98705.69
2024-01-24T13:17:28.036Z,98702.25
2024-01-24T13:19:54.688Z,98704.44
2024-01-24T13:22:21.146Z,98693.56
2024-01-24T13:24:47.641Z,98699.25
2024-01-24T13:27:17.896Z,98696.19
2024-01-24T13:29:44.338Z,98702.09
2024-01-24T13:32:11.160Z,98701.22
2024-01-24T13:34:40.570Z,98711.06
2024-01-24T13:37:07.149Z,98704.91
2024-01-24T13:39:33.894Z,98709.66
2024-01-24T13:42:00.937Z,98702.84
2024-01-24T13:44:27.375Z,98693.75
2024-01-24T13:46:53.824Z,98702.50
2024-01-24T13:49:20.328Z,98694.41
2024-01-24T13:51:46.822Z,98696.63
2024-01-24T13:54:13.300Z,98702.56
2024-01-24T13:56:40.067Z,98699.19
2024-01-24T13:59:06.566Z,98709.66
2024-01-24T14:01:36.137Z,98719.03
2024-01-24T14:04:07.057Z,98707.38
2024-01-24T14:06:33.782Z,98708.56
2024-01-24T14:09:00.437Z,98714.78
2024-01-24T14:11:26.936Z,98701.84
2024-01-24T14:13:56.472Z,98713.50
2024-01-24T14:16:22.926Z,98716.03
2024-01-24T14:18:51.944Z,98712.88
2024-01-24T14:21:19.742Z,98715.13
2024-01-24T14:23:46.200Z,98706.81
2024-01-24T14:26:12.582Z,98715.94
2024-01-24T14:28:38.983Z,98722.72
2024-01-24T14:31:05.503Z,98709.72
2024-01-24T14:33:34.963Z,98716.69
2024-01-24T14:36:01.973Z,98725.16
2024-01-24T14:38:28.397Z,98724.59
2024-01-24T14:40:54.833Z,98723.91
2024-01-24T14:43:21.287Z,98714.56
2024-01-24T14:45:47.727Z,98713.66
2024-01-24T14:48:14.310Z,98719.69
2024-01-24T14:50:40.766Z,98716.41
2024-01-24T14:53:07.189Z,98718.75
2024-01-24T14:55:33.596Z,98718.63
2024-01-24T14:58:00.005Z,98718.75
2024-01-24T15:00:26.453Z,98725.06
2024-01-24T15:02:52.865Z,98724.09
2024-01-24T15:05:19.268Z,98723.94
2024-01-24T15:07:45.878Z,98726.97
2024-01-24T15:10:12.481Z,98735.00
2024-01-24T15:12:39.017Z,98729.41
2024-01-24T15:15:05.450Z,98735.97
2024-01-24T15:17:31.895Z,98733.94
2024-01-24T15:19:58.786Z,98731.03
2024-01-24T15:22:25.462Z,98732.63
2024-01-24T15:24:52.000Z,98729.66
2024-01-24T15:27:18.444Z,98732.88
2024-01-24T15:29:45.356Z,98737.03
2024-01-24T15:32:11.845Z,98734.00
2024-01-24T15:34:38.346Z,98739.22
2024-01-24T15:37:05.185Z,98744.09
2024-01-24T15:39:31.901Z,98739.44
2024-01-24T15:41:58.314Z,98744.19
2024-01-24T15:44:24.760Z,98742.97
2024-01-24T15:46:51.148Z,98745.00
2024-01-24T15:49:20.195Z,98757.59
2024-01-24T15:51:46.654Z,98776.47
2024-01-24T15:54:13.123Z,98769.19
2024-01-24T15:56:39.589Z,98776.72
2024-01-24T15:59:06.041Z,98779.69
2024-01-24T16:01:32.494Z,98778.88
2024-01-24T16:03:59.462Z,98788.72
2024-01-24T16:06:26.124Z,98787.34
2024-01-24T16:08:52.729Z,98792.03
2024-01-24T16:11:19.521Z,98792.38
2024-01-24T16:13:45.930Z,98793.69
2024-01-24T16:16:12.417Z,98791.09
2024-01-24T16:18:38.967Z,98791.53
2024-01-24T16:21:05.435Z,98793.94
2024-01-24T16:23:31.871Z,98791.25
2024-01-24T16:25:58.257Z,98784.44
2024-01-24T16:28:24.712Z,98792.03
2024-01-24T16:30:51.147Z,98782.03
2024-01-24T16:33:18.837Z,98787.53
2024-01-24T16:35:45.307Z,98790.91
2024-01-24T16:38:11.705Z,98784.81
2024-01-24T16:40:38.112Z,98773.19
2024-01-24T16:43:04.529Z,98759.56
2024-01-24T16:45:31.038Z,98761.59
2024-01-24T16:47:57.491Z,98769.72
2024-01-24T16:50:23.918Z,98774.31
2024-01-24T16:52:50.979Z,98771.31
2024-01-24T16:55:17.564Z,98770.09
2024-01-24T16:57:43.997Z,98762.38
2024-01-24T17:00:10.969Z,98750.53
2024-01-24T17:02:42.771Z,98734.03
2024-01-24T17:05:13.082Z,98718.34
2024-01-24T17:07:39.499Z,98723.38
2024-01-24T17:10:06.040Z,98748.09
2024-01-24T17:12:32.534Z,98749.31
2024-01-24T17:14:58.961Z,98751.81
2024-01-24T17:17:25.526Z,98759.75
2024-01-24T17:19:52.217Z,98761.59
2024-01-24T17:22:18.694Z,98761.41
2024-01-24T17:24:45.182Z,98757.22
2024-01-24T17:27:11.604Z,98754.06
2024-01-24T17:29:38.017Z,98760.88
2024-01-24T17:32:04.474Z,98754.16
2024-01-24T17:34:30.989Z,98747.25
2024-01-24T17:36:57.507Z,98745.59
2024-01-24T17:39:25.612Z,98736.63
2024-01-24T17:41:52.479Z,98733.13
2024-01-24T17:44:19.000Z,98739.53
2024-01-24T17:46:45.425Z,98737.03
2024-01-24T17:49:12.054Z,98741.41
2024-01-24T17:51:40.578Z,98744.31
2024-01-24T17:54:07.056Z,98748.41
2024-01-24T17:56:33.530Z,98752.78
2024-01-24T17:59:00.009Z,98760.03
2024-01-24T18:01:26.547Z,98757.16
2024-01-24T18:03:53.193Z,98748.66
2024-01-24T18:06:19.627Z,98745.94
2024-01-24T18:08:46.302Z,98737.03
2024-01-24T18:11:12.895Z,98731.44
2024-01-24T18:13:39.296Z,98721.47
2024-01-24T18:16:05.862Z,98722.50
2024-01-24T18:18:32.438Z,98715.22
2024-01-24T18:20:58.913Z,98717.28
2024-01-24T18:23:25.321Z,98718.00
2024-01-24T18:25:51.783Z,98712.34
2024-01-24T18:28:18.193Z,98722.47
2024-01-24T18:30:44.777Z,98709.34
2024-01-24T18:33:11.405Z,98713.53
2024-01-24T18:35:37.877Z,98699.84
2024-01-24T18:38:04.334Z,98692.56
2024-01-24T18:40:30.754Z,98697.16
2024-01-24T18:42:57.191Z,98697.81
2024-01-24T18:45:23.936Z,98692.22
2024-01-24T18:47:50.488Z,98692.41
2024-01-24T18:50:17.354Z,98699.84
2024-01-24T18:52:43.833Z,98702.16
2024-01-24T18:55:11.011Z,98702.16
2024-01-24T18:57:37.505Z,98705.72
2024-01-24T19:00:04.110Z,98713.47
2024-01-24T19:02:30.699Z,98710.47
2024-01-24T19:04:57.336Z,98714.66
2024-01-24T19:07:23.972Z,98704.50
2024-01-24T19:09:51.144Z,98709.56
2024-01-24T19:12:17.667Z,98700.41
2024-01-24T19:14:44.238Z,98701.06
2024-01-24T19:17:10.792Z,98709.81
2024-01-24T19:19:37.381Z,98699.19
2024-01-24T19:22:04.164Z,98698.56
2024-01-24T19:24:30.690Z,98691.66
2024-01-24T19:26:57.473Z,98688.84
2024-01-24T19:29:25.295Z,98683.81
2024-01-24T19:31:51.748Z,98676.09
2024-01-24T19:34:18.263Z,98667.16
2024-01-24T19:36:44.780Z,98657.00
2024-01-24T19:39:11.172Z,98649.53
2024-01-24T19:41:37.574Z,98657.63
2024-01-24T19:44:04.087Z,98673.41
2024-01-24T19:46:30.503Z,98673.66
2024-01-24T19:48:56.979Z,98676.91
2024-01-24T19:51:23.519Z,98663.59
2024-01-24T19:53:49.940Z,98663.59
2024-01-24T19:56:16.514Z,98665.63
2024-01-24T19:58:42.917Z,98661.09
2024-01-24T20:01:09.429Z,98667.13
2024-01-24T20:03:35.895Z,98666.94
2024-01-24T20:06:02.314Z,98676.25
2024-01-24T20:08:28.810Z,98671.97
2024-01-24T20:10:55.247Z,98677.84
2024-01-24T20:13:21.634Z,98677.66
2024-01-24T20:15:48.097Z,98665.00
2024-01-24T20:18:14.613Z,98669.00
2024-01-24T20:20:41.264Z,98671.13
2024-01-24T20:23:07.666Z,98669.25
2024-01-24T20:25:34.151Z,98666.75
2024-01-24T20:28:00.582Z,98666.13
2024-01-24T20:30:27.030Z,98668.34
2024-01-24T20:33:01.180Z,98677.84
2024-01-24T20:35:31.128Z,98680.09
2024-01-24T20:37:58.000Z,98670.59
2024-01-24T20:40:24.397Z,98676.63
2024-01-24T20:42:50.876Z,98675.81
2024-01-24T20:45:17.355Z,98683.44
2024-01-24T20:47:43.817Z,98686.31
2024-01-24T20:50:10.305Z,98696.84
2024-01-24T20:52:36.844Z,98692.66
2024-01-24T20:55:03.267Z,98700.28
2024-01-24T20:57:30.316Z,98702.34
2024-01-24T20:59:57.042Z,98701.31
2024-01-24T21:02:23.570Z,98701.47
2024-01-24T21:04:50.335Z,98699.81
2024-01-24T21:07:17.039Z,98695.44
2024-01-24T21:09:43.537Z,98693.38
2024-01-24T21:12:11.635Z,98695.25
2024-01-24T21:14:39.141Z,98688.66
2024-01-24T21:17:05.541Z,98689.09
2024-01-24T21:19:32.072Z,98695.44
2024-01-24T21:21:58.735Z,98697.50
2024-01-24T21:24:25.263Z,98696.81
2024-01-24T21:26:52.189Z,98693.00
2024-01-24T21:29:18.570Z,98690.97
2024-01-24T21:31:44.985Z,98693.00
2024-01-24T21:34:11.764Z,98684.91
2024-01-24T21:36:38.809Z,98698.66
2024-01-24T21:39:06.657Z,98688.13
2024-01-24T21:41:33.121Z,98682.00
2024-01-24T21:43:59.561Z,98686.66
2024-01-24T21:46:25.974Z,98683.41
2024-01-24T21:48:52.405Z,98686.59
2024-01-24T21:51:18.839Z,98678.09
2024-01-24T21:53:45.253Z,98672.16
2024-01-24T21:56:12.444Z,98679.72
2024-01-24T21:58:39.761Z,98685.38
2024-01-24T22:01:06.245Z,98677.94
2024-01-24T22:03:32.725Z,98690.59
2024-01-24T22:05:59.180Z,98689.59
2024-01-24T22:08:25.743Z,98694.16
2024-01-24T22:10:52.205Z,98694.34
2024-01-24T22:13:18.745Z,98698.25
2024-01-24T22:15:45.280Z,98697.38
2024-01-24T22:18:11.849Z,98701.31
2024-01-24T22:20:38.330Z,98708.75
2024-01-24T22:23:04.819Z,98719.44
2024-01-24T22:25:31.264Z,98724.81
2024-01-24T22:27:57.764Z,98721.13
2024-01-24T22:30:24.225Z,98716.53
2024-01-24T22:32:50.709Z,98713.66
2024-01-24T22:35:18.033Z,98713.66
2024-01-24T22:37:44.508Z,98713.66
2024-01-24T22:40:11.112Z,98722.44
2024-01-24T22:42:37.692Z,98716.66
2024-01-24T22:45:04.185Z,98718.50
2024-01-24T22:47:30.800Z,98706.03
2024-01-24T22:49:57.487Z,98706.88
2024-01-24T22:52:24.088Z,98714.13
2024-01-24T22:54:50.586Z,98735.25
2024-01-24T22:57:17.326Z,98729.34
2024-01-24T22:59:43.765Z,98730.34
2024-01-24T23:02:10.457Z,98725.13
2024-01-24T23:04:37.191Z,98717.91
2024-01-24T23:07:03.785Z,98707.75
2024-01-24T23:09:30.322Z,98705.41
2024-01-24T23:11:56.791Z,98722.75
2024-01-24T23:14:23.261Z,98722.19
2024-01-24T23:16:49.725Z,98712.41
2024-01-24T23:19:16.231Z,98724.88
2024-01-24T23:21:42.704Z,98719.31
2024-01-24T23:24:09.171Z,98710.19
2024-01-24T23:26:35.614Z,98710.38
2024-01-24T23:29:02.014Z,98714.59
2024-01-24T23:31:28.404Z,98701.53
2024-01-24T23:33:55.048Z,98695.78
2024-01-24T23:36:21.536Z,98688.34
2024-01-24T23:38:47.978Z,98683.59
2024-01-24T23:41:14.400Z,98678.00
2024-01-24T23:43:40.808Z,98677.66
2024-01-24T23:46:07.261Z,98685.75
2024-01-24T23:48:33.772Z,98692.81
2024-01-24T23:51:00.751Z,98693.56
2024-01-24T23:53:27.299Z,98685.91
2024-01-24T23:55:53.713Z,98694.75
2024-01-24T23:58:20.260Z,98686.84
